Historyczne dane pomiarowe

Dodano dane terminowe – wersja testowa.

Dane z okresu 1951-2019

Wersja bazy: 1.34 [2019-03-16, lista zmian], aktualizacja planowana na 2019-04-15

Dane meteo z obszaru Polski uzyskane na podstawie danych udostępnionych przez Instytut Meteorologii i Gospodarki Wodnej – Państwowy Instytut Badawczy.

 

Wybierz Datę:    

       

TemperaturaWilgotnośćWiatrCiśnienieOpadyŚniegCzas trwania zjawisk
 Stacja t tx tn tng RH VA  wxwx mslp ppp RRR   cm mm wxwxwxwxwxwxwx
1954-04-17 3.5 6.6 0.1 0.2 92.5- 7.3 0.3---- 0.2------------
1954-04-18 5.0 8.9 -0.4 -2.9 79.5- 8.0 2.0---- 3.7------------
1954-04-19 7.3 12.2 2.7 2.9 96.5- 6.3 4.7---- 3.3------------
1954-04-20 12.1 18.2 5.8 4.9 70.5- 2.7 5.7---- 0.0------------
1954-04-21 10.7 16.9 2.6 -0.3 63.3- 2.0 4.0---- 0.0------------
1954-04-22 4.8 10.7 1.8 2.0 58.3- 0.3 5.3---- 0.0------------
1954-04-23 3.9 8.9 -3.0 -5.5 51.8- 0.7 4.0---- 0.0------------
1954-04-24 3.4 8.1 0.0 -2.5 62.0- 4.7 4.3---- 0.0------------
1954-04-25 1.8 6.6 -2.2 -4.2 83.8- 3.3 3.7---- 0.0------------
1954-04-26 0.5 5.0 -4.3 -6.9 70.8- 5.0 2.7---- 0.0------------
1954-04-27 3.4 7.7 -5.4-10.3 59.3- 4.3 0.7---- 0.0------------
1954-04-28 5.1 11.4 -0.6 -3.9 61.0- 4.3 2.0---- 0.0------------
1954-04-29 8.9 14.4 -1.8 -6.1 44.5- 1.3 4.3---- 0.0------------
1954-04-30 10.9 18.5 0.8 -2.1 58.0- 2.0 0.7---- 4.3------------
1954-05-01 12.1 17.8 9.3 8.4 83.3- 7.7 3.3---- 0.0------------
1954-05-02 9.9 14.3 6.9 7.6 85.5- 6.7 1.0---- 0.0------------
1954-05-03 12.5 20.4 0.4 -1.7 69.5- 0.0 0.7---- 0.0------------
1954-05-04 18.0 24.8 5.9 3.7 58.0- 2.3 3.0---- 0.0------------
1954-05-05 16.8 23.3 11.6 8.6 66.5- 6.3 3.7---- 0.0------------
1954-05-06 20.3 29.7 8.8 8.1 53.3- 7.3 5.7---- 0.0------------
1954-05-07 21.0 29.0 10.3 7.7 50.0- 1.7 4.0---- 0.0------------
1954-05-08 19.0 26.5 13.2 12.4 64.5- 0.7 4.3---- 0.0------------
1954-05-09 20.0 26.6 9.3 6.8 51.3- 4.7 3.7---- 0.0------------
1954-05-10 18.0 27.0 11.2 9.0 65.8- 4.3 4.7---- 2.5------------
1954-05-11 14.3 20.2 9.7 8.8 50.5- 2.0 5.7---- 0.0------------
1954-05-12 11.5 16.2 5.2 1.1 54.0- 5.0 6.0---- 0.0------------
1954-05-13 5.9 10.7 4.5 -0.9 71.0- 7.3 5.7---- 0.0------------
1954-05-14 7.1 10.5 1.9 1.7 66.8- 7.7 3.0---- 0.0------------
1954-05-15 6.6 14.2 -2.2 -7.4 64.8- 3.3 1.0---- 0.0------------
1954-05-16 12.0 18.1 -3.4 -7.0 57.8- 1.0 3.0---- 0.0------------
131.7 ms

 

Źródłem pochodzenia danych jest Instytut Meteorologii i Gospodarki Wodnej – Państwowy Instytut Badawczy. Dane Instytutu Meteorologii i Gospodarki Wodnej – Państwowego Instytutu Badawczego zostały przetworzone.

Dane źródłowe można odnaleźć na stronie https://dane.imgw.pl